Time;durP1;ratioP1;P1;durP2;ratioP2;P2;SDS_P1;SDS_P2;PMS_P1;PMS_P2;Temp;Humidity;BMP_temperature;BMP_pressure;BME280_temperature;BME280_humidity;BME280_pressure;Samples;Min_cycle;Max_cycle;Signal;HPM_P1;HPM_P2
2022/05/02 00:00:34;;;;;;;14.77;8.27;;;;;;;12.85;53.35;101407.03;4978821;28;20065;-66
2022/05/02 00:03:02;;;;;;;15.85;8.07;;;;;;;12.88;53.37;101409.19;4987650;28;20598;-67
2022/05/02 00:05:30;;;;;;;13.63;8.32;;;;;;;13.06;52.76;101405.47;4990776;28;20047;-66
2022/05/02 00:07:57;;;;;;;13.95;8.02;;;;;;;13.34;52.17;101401.44;4961850;28;20054;-66
2022/05/02 00:10:24;;;;;;;16.50;8.10;;;;;;;13.12;52.35;101395.91;4963153;28;20046;-67
2022/05/02 00:12:52;;;;;;;16.73;8.13;;;;;;;12.95;53.24;101395.75;4987726;28;20367;-67
2022/05/02 00:15:19;;;;;;;13.45;8.13;;;;;;;13.11;52.42;101388.75;4963128;28;20043;-65
2022/05/02 00:17:56;;;;;;;13.32;8.32;;;;;;;13.15;52.45;101389.75;4993211;28;20638;-68
2022/05/02 00:20:28;;;;;;;12.98;7.70;;;;;;;13.30;52.18;101385.81;4993392;28;20061;-69
2022/05/02 00:22:57;;;;;;;13.68;8.23;;;;;;;13.19;52.56;101389.94;4979844;28;20059;-68
2022/05/02 00:25:25;;;;;;;17.73;7.97;;;;;;;13.21;52.19;101379.38;4980763;28;20047;-69
2022/05/02 00:27:52;;;;;;;14.93;8.55;;;;;;;13.31;51.71;101388.25;4982952;28;20058;-68
2022/05/02 00:30:20;;;;;;;13.60;8.55;;;;;;;13.10;51.77;101378.00;4963504;28;20058;-68
2022/05/02 00:32:47;;;;;;;16.42;9.90;;;;;;;13.07;51.63;101381.41;4976493;28;20054;-68
2022/05/02 00:35:15;;;;;;;13.25;8.68;;;;;;;13.03;52.22;101374.84;4993422;28;20046;-68
2022/05/02 00:37:43;;;;;;;15.85;8.82;;;;;;;13.49;51.08;101376.13;4968527;28;20055;-67
2022/05/02 00:40:12;;;;;;;14.05;8.40;;;;;;;12.70;52.83;101378.94;4985894;28;20422;-68
2022/05/02 00:42:43;;;;;;;15.13;8.75;;;;;;;12.58;53.43;101378.66;4987162;28;20065;-69
2022/05/02 00:45:11;;;;;;;13.63;8.82;;;;;;;12.97;52.39;101370.56;4985319;28;20050;-68
2022/05/02 00:47:39;;;;;;;14.07;9.15;;;;;;;12.50;53.35;101371.91;4986767;28;20061;-70
2022/05/02 00:50:08;;;;;;;15.85;10.35;;;;;;;12.34;53.97;101376.16;4989706;28;20057;-69
2022/05/02 00:52:37;;;;;;;14.40;8.90;;;;;;;12.27;54.25;101370.22;4979008;28;20431;-66
2022/05/02 00:55:05;;;;;;;15.32;9.35;;;;;;;12.38;54.48;101371.63;4980696;28;20099;-67
2022/05/02 00:57:33;;;;;;;14.85;9.43;;;;;;;12.35;54.17;101367.56;4991100;28;20413;-66
2022/05/02 01:00:01;;;;;;;13.15;8.68;;;;;;;12.46;54.20;101359.84;4992467;28;20055;-67
2022/05/02 01:02:29;;;;;;;16.08;10.60;;;;;;;12.39;54.72;101351.16;4993251;28;20050;-66
2022/05/02 01:04:56;;;;;;;16.58;9.82;;;;;;;12.49;53.62;101353.69;4989250;28;20046;-66
2022/05/02 01:07:23;;;;;;;17.27;9.85;;;;;;;12.46;53.89;101346.84;4984093;28;20378;-65
2022/05/02 01:09:51;;;;;;;16.85;10.63;;;;;;;12.77;53.01;101337.84;4978269;28;20062;-67
2022/05/02 01:12:21;;;;;;;14.98;9.93;;;;;;;12.78;52.95;101345.81;4994266;28;20074;-67
2022/05/02 01:14:52;;;;;;;18.25;10.88;;;;;;;12.57;53.55;101336.38;4978547;28;20057;-67
2022/05/02 01:17:19;;;;;;;15.73;10.30;;;;;;;12.34;54.34;101337.47;4991771;28;20065;-66
2022/05/02 01:19:48;;;;;;;18.08;10.63;;;;;;;12.33;54.36;101330.28;4986691;28;20398;-66
2022/05/02 01:22:15;;;;;;;16.77;10.52;;;;;;;12.32;54.42;101339.72;4987190;28;20051;-66
2022/05/02 01:24:45;;;;;;;16.98;10.80;;;;;;;12.25;54.92;101336.56;4969718;28;20042;-66
2022/05/02 01:27:14;;;;;;;15.98;10.80;;;;;;;12.27;54.44;101337.06;4947972;28;20058;-63
2022/05/02 01:29:43;;;;;;;15.90;10.40;;;;;;;12.24;54.37;101332.16;4996366;28;20058;-64
2022/05/02 01:32:13;;;;;;;16.25;10.93;;;;;;;12.04;54.98;101335.34;4988086;28;20057;-64
2022/05/02 01:34:42;;;;;;;16.60;10.90;;;;;;;12.20;54.66;101334.72;4989469;28;20058;-64
2022/05/02 01:37:12;;;;;;;17.73;10.57;;;;;;;12.15;54.75;101334.81;4991142;28;20203;-66
2022/05/02 01:39:41;;;;;;;16.30;11.02;;;;;;;12.07;55.17;101340.25;4992717;28;20233;-67
2022/05/02 01:42:10;;;;;;;18.20;10.95;;;;;;;11.97;55.31;101337.72;4957896;28;20050;-64
2022/05/02 01:44:39;;;;;;;15.52;10.98;;;;;;;12.17;54.87;101334.50;4991457;28;20046;-65
2022/05/02 01:47:09;;;;;;;15.75;10.77;;;;;;;12.25;54.75;101334.63;4987011;28;20054;-65
2022/05/02 01:49:37;;;;;;;18.38;10.63;;;;;;;12.56;53.96;101337.50;4985590;28;20058;-64
2022/05/02 01:52:04;;;;;;;14.15;10.40;;;;;;;12.27;54.37;101342.59;4989176;28;20051;-65
2022/05/02 01:54:32;;;;;;;14.48;10.07;;;;;;;12.38;55.11;101335.72;4977404;28;20055;-68
2022/05/02 01:56:59;;;;;;;13.95;9.38;;;;;;;12.57;55.48;101339.13;4971711;28;20046;-65
2022/05/02 01:59:26;;;;;;;13.93;9.02;;;;;;;12.43;56.50;101343.88;4970637;28;20520;-67
2022/05/02 02:01:54;;;;;;;12.18;8.77;;;;;;;12.98;56.74;101339.81;4977855;28;20123;-67
2022/05/02 02:07:07;;;;;;;13.13;8.57;;;;;;;13.47;57.51;101336.09;4983170;28;20043;-66
2022/05/02 02:09:34;;;;;;;12.38;8.07;;;;;;;12.78;56.01;101333.97;4991487;28;20050;-66
2022/05/02 02:12:02;;;;;;;13.75;8.98;;;;;;;12.13;57.82;101328.78;4973479;28;20155;-67
2022/05/02 02:14:29;;;;;;;14.25;9.45;;;;;;;11.64;59.76;101333.38;4990642;28;20054;-65
2022/05/02 02:16:56;;;;;;;16.63;9.48;;;;;;;11.62;60.07;101332.88;4991751;28;20055;-66
2022/05/02 02:19:24;;;;;;;12.43;8.65;;;;;;;11.47;61.41;101335.94;4984926;28;20413;-68
2022/05/02 02:21:51;;;;;;;17.05;9.65;;;;;;;11.45;60.84;101339.00;4988915;28;20062;-66
2022/05/02 02:24:18;;;;;;;12.60;9.35;;;;;;;11.41;60.99;101335.19;4981507;28;20046;-68
2022/05/02 02:26:46;;;;;;;12.80;9.07;;;;;;;11.43;61.11;101324.69;4988091;28;20050;-66
2022/05/02 02:29:13;;;;;;;17.08;9.55;;;;;;;11.64;60.49;101325.09;4984354;28;20050;-66
2022/05/02 02:31:40;;;;;;;15.93;9.10;;;;;;;11.62;60.33;101328.19;4944464;28;20069;-66
2022/05/02 02:34:08;;;;;;;11.93;8.60;;;;;;;12.03;60.11;101323.50;4993028;28;20053;-66
2022/05/02 02:36:35;;;;;;;12.30;8.45;;;;;;;12.04;59.38;101318.78;4989617;28;20385;-68
2022/05/02 02:39:02;;;;;;;14.25;9.48;;;;;;;11.89;62.36;101317.16;4971103;28;20050;-66
2022/05/02 02:41:30;;;;;;;13.77;9.90;;;;;;;11.85;60.29;101318.09;4988188;28;20057;-65
2022/05/02 02:43:57;;;;;;;13.80;9.07;;;;;;;11.77;61.88;101316.06;4992348;28;20050;-65
2022/05/02 02:46:24;;;;;;;15.05;9.18;;;;;;;11.95;60.59;101312.34;4985608;28;20053;-66
2022/05/02 02:48:51;;;;;;;15.38;9.75;;;;;;;12.00;61.30;101320.53;5008967;28;20484;-67
2022/05/02 02:51:19;;;;;;;12.88;8.93;;;;;;;11.72;60.27;101313.38;5029871;28;20603;-67
2022/05/02 02:53:48;;;;;;;15.13;9.13;;;;;;;11.57;60.79;101313.66;5031169;28;20099;-66
2022/05/02 02:56:16;;;;;;;15.57;9.10;;;;;;;11.64;60.90;101316.81;5021070;28;20050;-66
2022/05/02 02:58:43;;;;;;;18.55;9.20;;;;;;;12.40;61.40;101311.34;5020428;28;20065;-64
2022/05/02 03:01:10;;;;;;;15.55;10.00;;;;;;;11.43;60.86;101310.06;5026734;28;20038;-64
2022/05/02 03:03:38;;;;;;;14.02;9.80;;;;;;;11.48;61.16;101312.72;5025650;28;20053;-64
2022/05/02 03:06:15;;;;;;;15.27;9.85;;;;;;;11.45;61.18;101308.66;5019392;28;20081;-64
2022/05/02 03:08:44;;;;;;;16.50;10.20;;;;;;;11.60;62.29;101304.75;5001057;28;20042;-63
2022/05/02 03:11:12;;;;;;;16.02;9.48;;;;;;;12.66;61.18;101306.06;5006000;28;20455;-64
2022/05/02 03:13:39;;;;;;;12.65;9.55;;;;;;;12.34;58.75;101305.13;5030591;28;20060;-64
2022/05/02 03:16:06;;;;;;;17.50;10.27;;;;;;;11.94;60.30;101303.25;5030828;28;20037;-64
2022/05/02 03:18:34;;;;;;;18.00;9.45;;;;;;;12.37;62.00;101299.00;5028958;28;20492;-64
2022/05/02 03:21:01;;;;;;;12.95;9.73;;;;;;;12.60;60.04;101293.50;5028174;28;20491;-64
2022/05/02 03:23:29;;;;;;;15.68;10.20;;;;;;;12.48;60.68;101292.09;5028604;28;20046;-64
2022/05/02 03:25:57;;;;;;;16.73;9.75;;;;;;;12.64;59.47;101289.78;5027540;28;20054;-65
2022/05/02 03:28:25;;;;;;;21.67;9.85;;;;;;;13.14;59.72;101284.97;5014710;28;20053;-66
2022/05/02 03:30:52;;;;;;;16.08;9.65;;;;;;;12.70;57.14;101294.06;5024380;28;20049;-66
2022/05/02 03:33:20;;;;;;;15.32;9.63;;;;;;;12.70;59.94;101285.78;5009154;28;20117;-66
2022/05/02 03:35:47;;;;;;;15.40;10.30;;;;;;;12.17;58.84;101288.38;5025942;28;20060;-66
2022/05/02 03:38:14;;;;;;;14.90;8.75;;;;;;;12.34;61.10;101288.53;4999013;28;20436;-66
2022/05/02 03:40:42;;;;;;;17.50;9.95;;;;;;;12.45;59.69;101291.88;5027789;28;20054;-66
2022/05/02 03:43:09;;;;;;;19.90;10.93;;;;;;;12.31;59.38;101285.59;5020174;28;20887;-65
2022/05/02 03:45:36;;;;;;;19.40;11.10;;;;;;;12.20;58.01;101286.97;5030350;28;20050;-67
2022/05/02 03:48:04;;;;;;;14.05;10.63;;;;;;;12.86;60.28;101277.91;5023539;28;20059;-67
2022/05/02 03:50:31;;;;;;;19.17;10.77;;;;;;;12.62;57.48;101282.94;4982822;28;20070;-67
2022/05/02 03:52:59;;;;;;;19.13;10.38;;;;;;;12.22;58.60;101279.19;4990917;28;20050;-66
2022/05/02 03:55:26;;;;;;;19.52;11.05;;;;;;;11.88;59.71;101284.34;4989079;28;20069;-66
2022/05/02 03:57:57;;;;;;;15.38;11.07;;;;;;;11.80;60.44;101282.31;4966985;28;20505;-66
2022/05/02 04:00:24;;;;;;;16.95;11.20;;;;;;;11.69;60.48;101287.22;4991327;28;20053;-66
2022/05/02 04:02:52;;;;;;;18.83;11.20;;;;;;;11.49;60.46;101281.28;4967403;28;20053;-66
2022/05/02 04:05:20;;;;;;;16.20;11.15;;;;;;;11.70;60.35;101285.28;4992282;28;20505;-65
2022/05/02 04:07:47;;;;;;;16.73;10.85;;;;;;;12.02;59.67;101282.38;4986341;28;20049;-65
2022/05/02 04:10:14;;;;;;;17.58;11.88;;;;;;;11.84;60.23;101278.63;4988171;28;20516;-66
2022/05/02 04:12:42;;;;;;;18.20;11.55;;;;;;;12.03;58.48;101275.75;4990803;28;20065;-66
2022/05/02 04:15:10;;;;;;;18.83;12.90;;;;;;;11.83;57.10;101278.94;4988808;28;20057;-66
2022/05/02 04:17:38;;;;;;;19.58;12.48;;;;;;;11.66;59.05;101292.53;4994702;28;20053;-66
2022/05/02 04:20:07;;;;;;;21.30;11.23;;;;;;;12.17;61.13;101280.09;4966230;28;20047;-66
2022/05/02 04:22:38;;;;;;;19.10;12.60;;;;;;;11.76;58.91;101284.88;4978447;28;20077;-65
2022/05/02 04:25:05;;;;;;;21.15;11.90;;;;;;;11.51;59.82;101288.09;4986331;28;20501;-65
2022/05/02 04:27:33;;;;;;;18.92;12.45;;;;;;;11.47;60.13;101283.50;4971108;28;20510;-66
2022/05/02 04:30:01;;;;;;;18.63;12.35;;;;;;;11.67;59.50;101283.13;4955365;28;20053;-66
2022/05/02 04:32:28;;;;;;;23.48;12.45;;;;;;;11.72;60.77;101288.53;4996400;28;20057;-67
2022/05/02 04:34:58;;;;;;;16.17;11.80;;;;;;;12.00;58.48;101290.16;4968776;28;20058;-65
2022/05/02 04:37:25;;;;;;;;;;;;;;;11.84;59.94;101288.84;4978999;28;20066;-66
2022/05/02 04:39:52;;;;;;;18.48;12.55;;;;;;;11.70;59.83;101282.53;4993115;28;19922;-66
2022/05/02 04:42:20;;;;;;;21.38;12.75;;;;;;;12.17;60.33;101279.28;4977265;28;20520;-66
2022/05/02 04:44:47;;;;;;;17.80;11.68;;;;;;;11.95;59.15;101284.75;4985107;28;20051;-66
2022/05/02 04:47:16;;;;;;;17.65;12.48;;;;;;;11.85;59.13;101288.56;4968947;28;20042;-66
2022/05/02 04:49:43;;;;;;;19.85;12.05;;;;;;;12.07;62.03;101285.03;4985001;28;20046;-66
2022/05/02 04:52:10;;;;;;;19.45;12.23;;;;;;;11.62;60.41;101291.47;4994729;28;20161;-66
2022/05/02 04:54:38;;;;;;;17.95;13.00;;;;;;;11.19;62.26;101286.22;4994938;28;20784;-66
2022/05/02 04:57:05;;;;;;;22.48;13.02;;;;;;;11.85;64.92;101290.50;4988741;28;20042;-67
2022/05/02 04:59:33;;;;;;;19.27;12.73;;;;;;;11.29;61.35;101294.31;4978386;28;20061;-65
2022/05/02 05:02:00;;;;;;;18.50;12.55;;;;;;;11.37;64.06;101295.53;4969326;28;20050;-65
2022/05/02 05:04:28;;;;;;;19.33;12.63;;;;;;;11.97;60.53;101293.53;4986456;28;20062;-66
2022/05/02 05:06:55;;;;;;;21.65;11.98;;;;;;;11.49;63.11;101284.03;4983775;28;20478;-65
2022/05/02 05:09:22;;;;;;;21.40;12.68;;;;;;;11.88;60.76;101290.69;4988309;28;20058;-64
2022/05/02 05:12:05;;;;;;;22.90;12.73;;;;;;;11.12;63.43;101293.28;4988458;28;20062;-65
2022/05/02 05:17:42;;;;;;;16.73;12.23;;;;;;;11.16;66.63;101297.88;4976404;28;20046;-63
2022/05/02 05:20:13;;;;;;;18.70;12.75;;;;;;;10.99;64.61;101300.38;4965769;28;20073;-65
2022/05/02 05:22:56;;;;;;;19.00;14.20;;;;;;;10.49;66.26;101306.72;4973045;28;20520;-64
2022/05/02 05:25:41;;;;;;;20.77;13.32;;;;;;;10.80;66.83;101291.34;4972441;28;20054;-63
2022/05/02 05:28:33;;;;;;;19.25;14.00;;;;;;;10.60;66.44;101302.66;4978950;28;21630;-65
2022/05/02 05:31:36;;;;;;;20.52;14.00;;;;;;;10.32;67.79;101305.59;4973400;28;20057;-67
2022/05/02 05:34:31;;;;;;;22.15;13.52;;;;;;;10.67;66.62;101311.38;4948813;28;20163;-64
2022/05/02 05:37:21;;;;;;;25.40;14.88;;;;;;;10.20;67.91;101306.84;4993803;28;20061;-65
2022/05/02 05:40:07;;;;;;;24.23;15.43;;;;;;;10.23;68.29;101307.38;4990104;28;20065;-63
2022/05/02 05:42:45;;;;;;;23.45;15.15;;;;;;;9.87;68.83;101304.22;4993063;28;20473;-64
2022/05/02 05:45:47;;;;;;;20.50;14.73;;;;;;;10.30;69.09;101296.81;4949290;28;20390;-64
2022/05/02 05:48:39;;;;;;;22.00;16.15;;;;;;;10.44;67.75;101305.97;4981047;28;20121;-64
2022/05/02 05:51:22;;;;;;;28.27;16.67;;;;;;;10.60;66.36;101299.91;4982328;28;20051;-64
2022/05/02 05:53:54;;;;;;;24.65;16.40;;;;;;;10.32;67.73;101305.59;4970806;28;20062;-63
2022/05/02 05:56:34;;;;;;;29.98;16.85;;;;;;;10.10;68.30;101308.91;4951145;28;20054;-64
2022/05/02 05:59:28;;;;;;;27.65;17.75;;;;;;;10.75;67.73;101294.19;4966003;28;21746;-65
2022/05/02 06:01:55;;;;;;;25.52;16.80;;;;;;;11.00;66.05;101298.44;4982140;28;20046;-65
2022/05/02 06:04:25;;;;;;;25.05;17.05;;;;;;;11.15;65.33;101296.25;4964620;28;20050;-63
2022/05/02 06:06:58;;;;;;;29.10;18.02;;;;;;;11.20;65.60;101292.56;4989262;28;20051;-67
2022/05/02 06:09:28;;;;;;;28.45;16.38;;;;;;;11.55;65.72;101302.94;4956182;28;20421;-64
2022/05/02 06:11:57;;;;;;;25.95;17.33;;;;;;;11.63;66.71;101296.69;4987492;28;20675;-66
2022/05/02 06:14:30;;;;;;;26.92;16.85;;;;;;;11.01;64.92;101300.91;4987010;28;20050;-64
2022/05/02 06:19:45;;;;;;;31.38;18.23;;;;;;;11.27;64.63;101304.84;4964966;28;20054;-66
2022/05/02 06:22:13;;;;;;;31.20;17.85;;;;;;;11.05;65.76;101312.13;4973258;28;20430;-65
2022/05/02 06:24:44;;;;;;;26.42;18.20;;;;;;;11.50;65.85;101303.03;4988138;28;20053;-63
2022/05/02 06:27:13;;;;;;;27.67;16.63;;;;;;;12.41;65.50;101307.47;4983962;28;20812;-64
2022/05/02 06:29:41;;;;;;;30.88;17.17;;;;;;;12.69;60.19;101300.75;4981230;28;20073;-66
2022/05/02 06:32:12;;;;;;;34.72;19.17;;;;;;;11.74;61.42;101305.59;4984176;28;20042;-67
2022/05/02 06:34:40;;;;;;;31.55;20.02;;;;;;;11.63;63.05;101309.69;4984129;28;20055;-65
2022/05/02 06:37:17;;;;;;;28.13;18.65;;;;;;;11.68;64.56;101296.63;4979797;28;22233;-66
2022/05/02 06:40:01;;;;;;;29.63;19.67;;;;;;;11.41;65.16;101299.34;4984167;28;20473;-69
2022/05/02 06:42:31;;;;;;;31.35;20.40;;;;;;;11.10;65.37;101304.59;4964661;28;20073;-68
2022/05/02 06:45:30;;;;;;;28.17;19.48;;;;;;;12.22;65.81;101301.28;4988215;28;20057;-68
2022/05/02 06:48:19;;;;;;;31.58;19.42;;;;;;;12.42;62.05;101307.16;4985881;28;20043;-67
2022/05/02 06:50:51;;;;;;;32.78;20.73;;;;;;;11.55;63.21;101302.09;4971077;28;20405;-68
2022/05/02 06:53:21;;;;;;;33.28;19.52;;;;;;;11.94;62.29;101299.69;4965738;28;20049;-68
2022/05/02 06:55:52;;;;;;;;;;;;;;;12.69;62.41;101295.22;4985332;28;20046;-70
2022/05/02 06:58:48;;;;;;;31.17;20.02;;;;;;;12.80;59.05;101301.28;4946675;28;20396;-67
2022/05/02 07:01:50;;;;;;;30.65;19.88;;;;;;;12.26;60.70;101297.59;4991706;28;20057;-69
2022/05/02 07:04:39;;;;;;;31.00;18.77;;;;;;;12.85;60.37;101307.50;4986846;28;20054;-68
2022/05/02 07:07:31;;;;;;;33.50;21.92;;;;;;;12.03;61.00;101303.38;4987219;28;20073;-68
2022/05/02 07:10:05;;;;;;;34.55;21.60;;;;;;;11.95;61.24;101310.41;4982597;28;20058;-68
2022/05/02 07:12:39;;;;;;;42.28;21.55;;;;;;;11.98;61.90;101311.72;4965938;28;20063;-70
2022/05/02 07:15:13;;;;;;;33.33;21.02;;;;;;;11.68;62.88;101306.84;4971118;28;20382;-66
2022/05/02 07:17:40;;;;;;;39.90;21.10;;;;;;;12.04;62.28;101310.50;4969562;28;20042;-67
2022/05/02 07:20:23;;;;;;;36.42;22.23;;;;;;;11.78;61.71;101309.41;4966049;28;20517;-67
2022/05/02 07:23:06;;;;;;;32.65;22.58;;;;;;;11.72;61.84;101307.84;4987298;28;20057;-68
2022/05/02 07:25:35;;;;;;;37.72;22.95;;;;;;;11.37;62.95;101322.31;4978746;28;20128;-67
2022/05/02 07:28:29;;;;;;;37.30;22.67;;;;;;;11.20;63.70;101307.16;4981748;28;20046;-66
2022/05/02 07:30:57;;;;;;;37.22;24.15;;;;;;;11.36;63.09;101310.47;4980562;28;20069;-67
2022/05/02 07:33:31;;;;;;;37.58;23.48;;;;;;;11.42;63.09;101312.00;4985952;28;20053;-65
2022/05/02 07:36:02;;;;;;;32.97;22.17;;;;;;;11.87;61.73;101316.63;4987796;28;20450;-66
2022/05/02 07:38:34;;;;;;;33.28;22.70;;;;;;;11.86;61.00;101315.03;4978326;28;20042;-66
2022/05/02 07:41:23;;;;;;;37.33;21.60;;;;;;;12.10;60.39;101314.81;4989868;28;20053;-66
2022/05/02 07:44:05;;;;;;;37.25;23.10;;;;;;;12.12;58.07;101307.00;4992560;28;20053;-67
2022/05/02 07:46:36;;;;;;;43.65;23.02;;;;;;;11.98;57.78;101312.56;4966153;28;20054;-66
2022/05/02 07:49:05;;;;;;;36.40;21.65;;;;;;;12.35;57.24;101312.31;4980475;28;20058;-67
2022/05/02 07:51:33;;;;;;;40.47;22.70;;;;;;;12.43;55.63;101314.31;4985792;28;20057;-67
2022/05/02 07:54:01;;;;;;;34.28;22.73;;;;;;;12.31;55.86;101316.78;4983926;28;20046;-67
2022/05/02 07:56:32;;;;;;;39.88;22.98;;;;;;;12.42;56.13;101317.38;4992786;28;20046;-67
2022/05/02 07:59:02;;;;;;;35.85;22.92;;;;;;;12.76;54.85;101308.59;4965920;28;20038;-68
2022/05/02 08:01:29;;;;;;;40.37;23.03;;;;;;;12.80;54.59;101306.81;4974971;28;20061;-68
2022/05/02 08:03:56;;;;;;;37.20;23.85;;;;;;;13.13;53.74;101306.25;4991366;28;20046;-66
2022/05/02 08:06:29;;;;;;;37.80;22.67;;;;;;;13.34;52.89;101304.59;4985798;28;20058;-66
2022/05/02 08:09:06;;;;;;;38.05;23.50;;;;;;;13.31;52.77;101304.41;4961715;28;20062;-66
2022/05/02 08:11:58;;;;;;;38.88;23.73;;;;;;;13.21;53.15;101313.81;4988108;28;20050;-67
2022/05/02 08:14:41;;;;;;;37.95;24.52;;;;;;;12.89;53.50;101308.53;4990930;28;20054;-67
2022/05/02 08:17:48;;;;;;;35.78;23.88;;;;;;;13.07;53.92;101310.31;4984362;28;20051;-66
2022/05/02 08:20:54;;;;;;;31.45;23.13;;;;;;;13.51;52.37;101303.88;4977074;28;20054;-67
2022/05/02 08:29:23;;;;;;;33.83;23.88;;;;;;;13.72;51.80;101307.69;4975658;28;20795;-67
2022/05/02 08:31:55;;;;;;;38.95;23.98;;;;;;;13.60;51.98;101299.19;4974940;28;20059;-66
2022/05/02 08:34:41;;;;;;;35.85;23.90;;;;;;;13.30;53.04;101305.56;4984966;28;20053;-67
2022/05/02 08:37:40;;;;;;;38.97;24.58;;;;;;;13.32;53.04;101301.31;4973608;28;20058;-67
2022/05/02 08:40:19;;;;;;;38.20;23.90;;;;;;;13.22;53.30;101301.59;4993412;28;20070;-67
2022/05/02 08:43:04;;;;;;;38.50;25.02;;;;;;;13.41;53.15;101306.91;4947413;28;20055;-64
2022/05/02 08:45:53;;;;;;;45.10;25.00;;;;;;;13.73;52.38;101303.81;4976237;28;20047;-63
2022/05/02 08:52:01;;;;;;;37.72;25.50;;;;;;;14.33;50.24;101304.00;5005526;28;20062;-63
2022/05/02 08:54:57;;;;;;;35.08;24.58;;;;;;;14.53;50.17;101295.84;5019011;28;20061;-63
2022/05/02 08:57:53;;;;;;;37.97;25.95;;;;;;;14.01;50.54;101305.19;5012503;28;20072;-62
2022/05/02 09:00:44;;;;;;;39.13;26.58;;;;;;;14.17;50.63;101308.34;5015241;28;20053;-62
2022/05/02 09:03:34;;;;;;;38.47;25.30;;;;;;;14.50;49.82;101304.84;5002260;28;20050;-62
2022/05/02 09:06:10;;;;;;;36.65;25.83;;;;;;;14.51;49.74;101305.63;5032646;28;20054;-61
2022/05/02 09:08:59;;;;;;;37.65;25.90;;;;;;;14.41;49.73;101312.31;5011383;28;20054;-62
2022/05/02 09:11:55;;;;;;;39.17;25.88;;;;;;;14.02;50.87;101303.22;5028377;28;20523;-62
2022/05/02 09:14:59;;;;;;;47.47;28.08;;;;;;;14.11;50.75;101298.53;5025989;28;20050;-68
2022/05/02 09:17:56;;;;;;;48.28;27.55;;;;;;;14.10;51.07;101302.44;5014052;28;20619;-66
2022/05/02 09:20:50;;;;;;;33.42;25.20;;;;;;;14.30;50.28;101299.91;5002615;28;20536;-66
2022/05/02 09:23:44;;;;;;;37.65;26.13;;;;;;;14.29;50.34;101306.59;5012604;28;20065;-67
2022/05/02 09:26:17;;;;;;;39.03;28.58;;;;;;;14.09;50.90;101300.81;5019066;28;20073;-67
2022/05/02 09:28:59;;;;;;;43.25;28.20;;;;;;;13.96;51.70;101296.22;5024955;28;20798;-67
2022/05/02 09:31:44;;;;;;;41.45;27.30;;;;;;;14.31;50.85;101292.41;5031245;28;20049;-68
2022/05/02 09:34:18;;;;;;;37.05;26.70;;;;;;;14.17;51.26;101300.84;5014371;28;20046;-65
2022/05/02 09:37:02;;;;;;;37.08;25.42;;;;;;;14.00;51.72;101297.22;5033211;28;20523;-66
2022/05/02 09:39:46;;;;;;;35.30;25.50;;;;;;;14.33;51.22;101281.81;5031542;28;20140;-66
2022/05/02 09:42:44;;;;;;;35.28;24.80;;;;;;;14.68;50.40;101294.53;5023886;28;20062;-66
2022/05/02 09:51:28;;;;;;;33.22;25.80;;;;;;;14.75;50.32;101281.00;5011881;28;20048;-66
2022/05/02 09:54:13;;;;;;;34.05;25.13;;;;;;;15.14;49.85;101275.22;5018844;28;20369;-66
2022/05/02 09:56:47;;;;;;;37.05;25.15;;;;;;;14.84;50.30;101267.94;5026817;28;20061;-68
2022/05/02 09:59:28;;;;;;;32.58;24.98;;;;;;;15.25;49.79;101273.75;5024229;28;20505;-68
2022/05/02 10:02:15;;;;;;;41.00;24.77;;;;;;;15.34;49.56;101270.94;5030905;28;20064;-67
2022/05/02 10:05:07;;;;;;;35.80;25.33;;;;;;;15.29;49.22;101274.69;5009659;28;20121;-67
2022/05/02 10:07:51;;;;;;;34.80;24.13;;;;;;;15.28;49.69;101266.69;5016834;28;20053;-67
2022/05/02 10:10:24;;;;;;;35.30;24.65;;;;;;;15.05;50.01;101274.44;5011428;28;20049;-66
2022/05/02 10:13:29;;;;;;;32.50;23.35;;;;;;;15.26;49.84;101257.88;5007715;28;20050;-66
2022/05/02 10:16:04;;;;;;;32.42;22.33;;;;;;;15.62;49.00;101258.28;5025712;28;20585;-67
2022/05/02 10:19:00;;;;;;;33.17;21.77;;;;;;;15.60;48.80;101258.59;5025640;28;20157;-68
2022/05/02 10:21:27;;;;;;;37.22;23.42;;;;;;;15.68;48.67;101256.91;5023400;28;20057;-66
2022/05/02 10:24:18;;;;;;;41.88;22.73;;;;;;;15.83;48.11;101255.56;5031970;28;20053;-66
2022/05/02 10:27:37;;;;;;;34.70;22.40;;;;;;;15.90;47.96;101258.63;5024336;28;20061;-65
2022/05/02 10:30:11;;;;;;;39.70;23.10;;;;;;;15.59;48.80;101250.59;4987466;28;20159;-66
2022/05/02 10:32:44;;;;;;;29.52;20.75;;;;;;;15.92;48.17;101253.53;5031667;28;20077;-67
2022/05/02 10:35:14;;;;;;;31.83;21.83;;;;;;;16.28;47.26;101243.47;5029862;28;20060;-67
2022/05/02 10:37:42;;;;;;;;;;;;;;;17.60;46.29;101259.84;5025130;28;20054;-49
2022/05/02 10:40:13;;;;;;;23.88;17.83;;;;;;;19.01;44.34;101241.88;5020663;28;20394;-51
2022/05/02 10:43:03;;;;;;;27.42;19.83;;;;;;;17.32;45.00;101238.53;5017339;28;20053;-65
2022/05/02 10:45:33;;;;;;;29.15;18.95;;;;;;;17.21;44.91;101238.16;4987276;28;20065;-65
2022/05/02 10:48:07;;;;;;;30.52;18.58;;;;;;;17.05;44.51;101236.41;5020356;28;20076;-68
2022/05/02 10:50:34;;;;;;;32.38;19.23;;;;;;;16.34;46.61;101236.53;5009577;28;20054;-65
2022/05/02 10:53:12;;;;;;;25.60;18.02;;;;;;;16.64;46.58;101226.19;5018694;28;20056;-65
2022/05/02 10:56:21;;;;;;;31.15;18.63;;;;;;;17.11;46.09;101230.28;5022066;28;20057;-65
2022/05/02 10:58:49;;;;;;;34.50;19.77;;;;;;;17.14;47.88;101220.44;5002462;28;20065;-66
2022/05/02 11:01:49;;;;;;;25.60;17.50;;;;;;;17.00;45.24;101228.28;5027029;28;20045;-66
2022/05/02 11:04:28;;;;;;;;;;;;;;;16.64;45.60;101228.97;5031329;28;20056;-64
2022/05/02 11:07:08;;;;;;;24.08;17.25;;;;;;;16.90;45.68;101223.94;5030359;28;19921;-65
2022/05/02 11:10:03;;;;;;;25.90;17.83;;;;;;;17.06;45.30;101224.09;5007485;28;20528;-63
2022/05/02 11:12:37;;;;;;;19.55;15.38;;;;;;;16.89;46.31;101212.00;5024388;28;20054;-64
2022/05/02 11:15:11;;;;;;;24.48;15.60;;;;;;;17.00;45.19;101215.16;5028118;28;20057;-64
2022/05/02 11:18:04;;;;;;;24.73;15.38;;;;;;;17.35;45.84;101212.78;5024486;28;20468;-63
2022/05/02 11:20:42;;;;;;;29.63;17.17;;;;;;;17.73;45.66;101205.72;5028827;28;20047;-64
2022/05/02 11:23:25;;;;;;;29.05;17.05;;;;;;;17.45;43.90;101206.78;5006763;28;20060;-63
2022/05/02 11:25:55;;;;;;;28.88;16.60;;;;;;;17.46;44.57;101205.59;5029483;28;20053;-63
2022/05/02 11:28:37;;;;;;;;;;;;;;;17.19;44.11;101212.63;5029277;28;20053;-63
2022/05/02 11:31:29;;;;;;;25.60;15.85;;;;;;;17.03;44.77;101210.88;5020121;28;19933;-63
2022/05/02 11:34:23;;;;;;;24.67;15.40;;;;;;;16.91;45.70;101208.06;5007602;28;20500;-63
2022/05/02 11:36:57;;;;;;;21.30;14.77;;;;;;;17.33;45.01;101209.56;4992173;28;20088;-64
2022/05/02 11:39:57;;;;;;;22.50;15.80;;;;;;;17.11;44.88;101207.19;5023925;28;20041;-63
2022/05/02 11:42:28;;;;;;;30.35;15.57;;;;;;;17.33;44.88;101201.19;5019617;28;20052;-64
2022/05/02 11:45:13;;;;;;;25.40;15.60;;;;;;;17.51;45.17;101202.59;5004871;28;20088;-63
2022/05/02 11:48:02;;;;;;;27.02;15.73;;;;;;;17.61;44.21;101200.16;5025797;28;20053;-63
2022/05/02 11:50:40;;;;;;;21.75;15.25;;;;;;;17.67;44.19;101196.00;5021555;28;20057;-64
2022/05/02 11:53:10;;;;;;;24.17;15.68;;;;;;;17.64;43.63;101187.53;5026850;28;20060;-65
2022/05/02 11:55:38;;;;;;;;;;;;;;;17.41;44.48;101191.91;5018722;28;20712;-65
2022/05/02 11:58:13;;;;;;;21.83;15.32;;;;;;;17.48;44.49;101201.34;5027849;28;19933;-64
2022/05/02 12:00:42;;;;;;;21.77;15.20;;;;;;;17.61;44.21;101185.41;5012150;28;20050;-65
2022/05/02 12:03:18;;;;;;;21.58;14.43;;;;;;;17.77;43.55;101187.16;5005296;28;20551;-64
2022/05/02 12:05:55;;;;;;;23.67;14.45;;;;;;;17.94;43.25;101192.47;5021735;28;20062;-64
2022/05/02 12:08:31;;;;;;;22.83;15.07;;;;;;;17.44;43.74;101197.59;5026985;28;20049;-66
2022/05/02 12:11:07;;;;;;;17.88;13.48;;;;;;;17.85;44.19;101186.22;5023248;28;20045;-63